London Airport
CYXU : now visible

Airfield :











YOU CAN JOIN US ON...

 
LOGIN :

Register | Disclaimer

   EN    FR    IT 

 









Legend :    VFR   Marginal VFR   IFR   Intensive IFR   Very Intensive IFR
Visi :
Ceiling :
>= 8 km
>= 3000ft
5 to 8 km
1000 to 3000 ft
1500m to 5 km
500 to 1000 ft
800 to 1500m
200 to 500 ft
< 800m
< 200 ft
Symbols :   Thunderstorms  Fog  Heavy snow  Heavy precipitations  Wind > 20 kt






- Airport Elevation : 912 ft
- IATA code : YXU


CYXU - London

CURRENT METAR :
  • 241900Z 13004KT 360V160 15SM BKN052 19/08 A3023 RMK CU5 SLP242 DENSITY ALT 1300FT

EXPIRED METARs :
  • 241800Z VRB02KT 15SM BKN046 19/09 A3024 RMK CU6 SLP247 DENSITY ALT 1300FT
  • 241700Z VRB04KT 15SM SCT040 SCT240 17/07 A3025 RMK CU3CI1 SLP249 DENSITY ALT 1000FT

TAF TAF CYXU
Valid from the 24 at 18:00 until the 25 at 18:00 UTC


241740Z 2418/2518 12005KT P6SM SCT040
TEMPO 2418/2424 BKN040
FM250000 09008KT P6SM FEW040
FM251000 08007KT P6SM FEW015
BECMG 2513/2515 10010G20KT
FM251500 10010G20KT P6SM FEW025
FM251700 12010G20KT P6SM FEW040 SCT160 BKN220 RMK NXT FCST BY 250000Z
CZYZ FIR / North America



MET'MAP, your aeronautical weather chart ! - Copyright ORBIFLY December 2007 - Disclaimer

ORBIFLY MET'MAP TEAM :

Programming & Development : Alexandra Zaïnal
Original concept : Baudouin d'Aumeries
Technical & hardware support : Manuel Goepfert
Assistance : Marc-Olivier Méhu

Contact : metmap@orbifly.com




SOURCES & CREDITS :

   NOAA       Earth
Advisory